Time;durP1;ratioP1;P1;durP2;ratioP2;P2;SDS_P1;SDS_P2;PMS_P1;PMS_P2;Temp;Humidity;BMP_temperature;BMP_pressure;BME280_temperature;BME280_humidity;BME280_pressure;Samples;Min_cycle;Max_cycle;Signal;HPM_P1;HPM_P2
2023/01/11 00:00:01;;;;;;;6.47;5.35;;;;;;;;;;5093832;28;20047;-77
2023/01/11 00:02:26;;;;;;;5.07;4.20;;;;;;;;;;5097359;28;20342;-76
2023/01/11 00:04:52;;;;;;;5.80;5.20;;;;;;;;;;5086762;28;20017;-76
2023/01/11 00:07:17;;;;;;;3.83;3.40;;;;;;;;;;5083734;28;20054;-76
2023/01/11 00:09:43;;;;;;;3.85;3.30;;;;;;;;;;5085104;28;20435;-77
2023/01/11 00:12:11;;;;;;;3.92;2.55;;;;;;;;;;5083718;28;20019;-75
2023/01/11 00:14:36;;;;;;;6.20;4.90;;;;;;;;;;5095726;28;20336;-75
2023/01/11 00:17:01;;;;;;;14.20;12.68;;;;;;;;;;5077187;28;20104;-76
2023/01/11 00:19:27;;;;;;;3.15;2.60;;;;;;;;;;5095108;28;20462;-75
2023/01/11 00:21:52;;;;;;;5.05;3.88;;;;;;;;;;5084679;28;20958;-76
2023/01/11 00:24:17;;;;;;;4.97;4.32;;;;;;;;;;5081893;28;20093;-75
2023/01/11 00:26:43;;;;;;;4.78;3.95;;;;;;;;;;5090881;28;20020;-76
2023/01/11 00:29:08;;;;;;;2.75;2.20;;;;;;;;;;5096446;28;20095;-75
2023/01/11 00:31:33;;;;;;;3.10;2.10;;;;;;;;;;5096390;28;20102;-75
2023/01/11 00:33:59;;;;;;;2.13;1.60;;;;;;;;;;5095871;28;20024;-76
2023/01/11 00:36:24;;;;;;;2.67;1.80;;;;;;;;;;5087137;28;20512;-76
2023/01/11 00:38:54;;;;;;;3.70;2.97;;;;;;;;;;5089373;28;20035;-76
2023/01/11 00:49:32;;;;;;;4.10;3.70;;;;;;;;;;5084166;28;20102;-78
2023/01/11 00:51:58;;;;;;;4.53;3.67;;;;;;;;;;5094912;28;20446;-76
2023/01/11 00:54:23;;;;;;;3.53;3.10;;;;;;;;;;5095843;28;20604;-78
2023/01/11 00:56:48;;;;;;;6.00;4.50;;;;;;;;;;5087542;28;20040;-77
2023/01/11 00:59:14;;;;;;;4.80;4.38;;;;;;;;;;5093325;28;20056;-77
2023/01/11 01:01:39;;;;;;;2.35;2.15;;;;;;;;;;5093737;28;20122;-76
2023/01/11 01:04:05;;;;;;;3.47;2.35;;;;;;;;;;5098455;28;20038;-77
2023/01/11 01:06:30;;;;;;;3.05;2.72;;;;;;;;;;5097524;28;20023;-76
2023/01/11 01:08:55;;;;;;;2.55;2.30;;;;;;;;;;5086368;28;20024;-75
2023/01/11 01:11:21;;;;;;;3.70;3.20;;;;;;;;;;5086524;28;20067;-77
2023/01/11 01:16:31;;;;;;;5.07;4.47;;;;;;;;;;5091613;28;20057;-77
2023/01/11 01:18:56;;;;;;;3.55;3.10;;;;;;;;;;5095378;28;20020;-77
2023/01/11 01:21:23;;;;;;;2.75;2.50;;;;;;;;;;5092692;28;20024;-77
2023/01/11 01:23:50;;;;;;;2.80;2.28;;;;;;;;;;5092193;28;20020;-78
2023/01/11 01:26:15;;;;;;;3.92;3.53;;;;;;;;;;5094076;28;20019;-77
2023/01/11 01:28:41;;;;;;;2.70;2.50;;;;;;;;;;5090631;28;20032;-77
2023/01/11 01:31:06;;;;;;;6.03;5.40;;;;;;;;;;5073352;28;20917;-76
2023/01/11 01:33:31;;;;;;;3.17;2.78;;;;;;;;;;5076645;28;20209;-76
2023/01/11 01:35:56;;;;;;;4.57;4.18;;;;;;;;;;5094242;28;20099;-76
2023/01/11 01:38:22;;;;;;;3.38;2.50;;;;;;;;;;5092267;28;20454;-75
2023/01/11 01:40:47;;;;;;;4.95;4.45;;;;;;;;;;5092769;28;20028;-75
2023/01/11 01:43:14;;;;;;;5.28;4.78;;;;;;;;;;5091555;28;20915;-76
2023/01/11 01:45:40;;;;;;;8.38;7.57;;;;;;;;;;5077068;28;20450;-76
2023/01/11 01:48:08;;;;;;;7.43;6.05;;;;;;;;;;5095113;28;20040;-76
2023/01/11 01:50:35;;;;;;;6.28;4.68;;;;;;;;;;5094063;28;20023;-76
2023/01/11 01:53:08;;;;;;;4.75;3.65;;;;;;;;;;5092149;28;20030;-77
2023/01/11 01:55:35;;;;;;;4.18;2.63;;;;;;;;;;5095758;28;20081;-75
2023/01/11 01:58:03;;;;;;;4.15;3.75;;;;;;;;;;5094087;28;20028;-76
2023/01/11 02:00:28;;;;;;;3.80;3.50;;;;;;;;;;5082600;28;20039;-75
2023/01/11 02:02:54;;;;;;;6.78;4.93;;;;;;;;;;5092581;28;20023;-75
2023/01/11 02:05:20;;;;;;;7.85;6.22;;;;;;;;;;5094697;28;20031;-75
2023/01/11 02:07:46;;;;;;;3.05;2.70;;;;;;;;;;5094285;28;20027;-75
2023/01/11 02:10:14;;;;;;;3.75;3.35;;;;;;;;;;5079040;28;20096;-76
2023/01/11 02:12:41;;;;;;;5.65;4.85;;;;;;;;;;5091055;28;20051;-75
2023/01/11 02:15:08;;;;;;;3.22;2.92;;;;;;;;;;5080416;28;20031;-74
2023/01/11 02:17:34;;;;;;;2.28;2.00;;;;;;;;;;5090703;28;20969;-74
2023/01/11 02:19:59;;;;;;;3.30;2.80;;;;;;;;;;5086655;28;20024;-74
2023/01/11 02:22:43;;;;;;;2.67;2.47;;;;;;;;;;5081890;28;20028;-74
2023/01/11 02:25:27;;;;;;;4.70;4.20;;;;;;;;;;5093930;28;20023;-75
2023/01/11 02:28:06;;;;;;;4.05;3.38;;;;;;;;;;5094386;28;20087;-77
2023/01/11 02:30:36;;;;;;;3.70;3.40;;;;;;;;;;5081092;28;20113;-75
2023/01/11 02:33:24;;;;;;;3.00;2.80;;;;;;;;;;5087979;28;20023;-76
2023/01/11 02:35:59;;;;;;;2.97;2.70;;;;;;;;;;5079247;28;20032;-76
2023/01/11 02:38:24;;;;;;;3.38;3.00;;;;;;;;;;5087905;28;20406;-74
2023/01/11 02:41:08;;;;;;;2.38;2.10;;;;;;;;;;5091938;28;20024;-74
2023/01/11 02:46:39;;;;;;;3.35;2.88;;;;;;;;;;5084383;28;20057;-75
2023/01/11 02:49:10;;;;;;;6.85;6.15;;;;;;;;;;5098230;28;20018;-73
2023/01/11 02:51:52;;;;;;;4.97;4.47;;;;;;;;;;5095142;28;20085;-75
2023/01/11 02:54:19;;;;;;;4.53;4.10;;;;;;;;;;5095787;28;20038;-72
2023/01/11 02:56:46;;;;;;;5.32;4.88;;;;;;;;;;5095331;28;20023;-74
2023/01/11 02:59:16;;;;;;;2.90;2.70;;;;;;;;;;5096695;28;20040;-73
2023/01/11 03:01:44;;;;;;;1.40;1.30;;;;;;;;;;5084648;28;20039;-73
2023/01/11 03:04:23;;;;;;;2.78;2.58;;;;;;;;;;5086750;28;20024;-74
2023/01/11 03:06:50;;;;;;;21.08;10.77;;;;;;;;;;5093052;28;20024;-77
2023/01/11 03:09:33;;;;;;;30.60;12.85;;;;;;;;;;5095585;28;20034;-74
2023/01/11 03:14:58;;;;;;;11.38;6.80;;;;;;;;;;5095831;28;20045;-76
2023/01/11 03:17:26;;;;;;;5.18;3.90;;;;;;;;;;5085906;28;20443;-75
2023/01/11 03:20:00;;;;;;;3.60;3.30;;;;;;;;;;5085782;28;20024;-74
2023/01/11 03:22:25;;;;;;;2.50;2.30;;;;;;;;;;5098098;28;20039;-74
2023/01/11 03:24:57;;;;;;;1.85;1.75;;;;;;;;;;5096202;28;20092;-74
2023/01/11 03:27:48;;;;;;;3.92;3.55;;;;;;;;;;5091709;28;20042;-74
2023/01/11 03:30:19;;;;;;;2.17;2.00;;;;;;;;;;5093449;28;20081;-74
2023/01/11 03:32:50;;;;;;;0.75;0.75;;;;;;;;;;5078535;28;20081;-75
2023/01/11 03:35:28;;;;;;;0.95;0.95;;;;;;;;;;5090553;28;20023;-76
2023/01/11 03:37:56;;;;;;;85.68;60.65;;;;;;;;;;5092683;28;20077;-75
2023/01/11 03:40:28;;;;;;;56.45;38.20;;;;;;;;;;5086493;28;20359;-74
2023/01/11 03:43:11;;;;;;;7.88;6.85;;;;;;;;;;5095569;28;20452;-74
2023/01/11 03:45:39;;;;;;;5.75;4.75;;;;;;;;;;5094671;28;20024;-75
2023/01/11 03:48:07;;;;;;;4.45;3.60;;;;;;;;;;5082147;28;20024;-74
2023/01/11 03:50:32;;;;;;;2.92;2.60;;;;;;;;;;5085425;28;20045;-75
2023/01/11 03:52:58;;;;;;;10.70;6.38;;;;;;;;;;5095259;28;20035;-74
2023/01/11 03:55:25;;;;;;;13.30;6.18;;;;;;;;;;5086217;28;20114;-75
2023/01/11 03:57:52;;;;;;;560.08;255.27;;;;;;;;;;5096015;28;20059;-75
2023/01/11 04:00:21;;;;;;;80.25;34.60;;;;;;;;;;5097166;28;20047;-75
2023/01/11 04:02:47;;;;;;;29.67;23.67;;;;;;;;;;5085044;28;20035;-75
2023/01/11 04:05:12;;;;;;;44.30;39.50;;;;;;;;;;5084361;28;20144;-75
2023/01/11 04:07:38;;;;;;;12.05;10.50;;;;;;;;;;5083400;28;20422;-76
2023/01/11 04:10:04;;;;;;;9.52;8.63;;;;;;;;;;5091457;28;20027;-74
2023/01/11 04:12:29;;;;;;;21.65;19.75;;;;;;;;;;5085726;28;20073;-74
2023/01/11 04:14:54;;;;;;;12.52;9.55;;;;;;;;;;5086548;28;20028;-74
2023/01/11 04:17:20;;;;;;;10.35;7.72;;;;;;;;;;5083005;28;20475;-74
2023/01/11 04:19:45;;;;;;;4.90;3.78;;;;;;;;;;5081587;28;20032;-74
2023/01/11 04:22:10;;;;;;;8.75;7.32;;;;;;;;;;5087019;28;20438;-74
2023/01/11 04:24:35;;;;;;;35.28;28.70;;;;;;;;;;5089758;28;20119;-74
2023/01/11 04:27:01;;;;;;;18.95;16.88;;;;;;;;;;5092014;28;20101;-74
2023/01/11 04:29:26;;;;;;;25.73;21.90;;;;;;;;;;5092768;28;20028;-74
2023/01/11 04:31:51;;;;;;;34.38;29.58;;;;;;;;;;5093050;28;20031;-77
2023/01/11 04:34:17;;;;;;;7.05;6.32;;;;;;;;;;5081532;28;20089;-74
2023/01/11 04:36:42;;;;;;;4.93;4.40;;;;;;;;;;5085635;28;20071;-75
2023/01/11 04:39:09;;;;;;;18.25;16.27;;;;;;;;;;5090322;28;20034;-73
2023/01/11 04:44:19;;;;;;;27.73;23.23;;;;;;;;;;5087493;28;20857;-75
2023/01/11 04:46:44;;;;;;;32.53;25.30;;;;;;;;;;5088368;28;20024;-74
2023/01/11 04:49:09;;;;;;;40.47;32.05;;;;;;;;;;5077652;28;20103;-75
2023/01/11 04:51:35;;;;;;;34.03;27.05;;;;;;;;;;5072393;28;20924;-75
2023/01/11 04:54:00;;;;;;;33.17;26.25;;;;;;;;;;5071571;28;20032;-74
2023/01/11 04:56:25;;;;;;;41.97;35.17;;;;;;;;;;5082357;28;20458;-75
2023/01/11 04:58:51;;;;;;;42.35;33.58;;;;;;;;;;5071434;28;20044;-75
2023/01/11 05:01:17;;;;;;;33.15;27.00;;;;;;;;;;5075583;28;20036;-74
2023/01/11 05:03:42;;;;;;;35.55;28.20;;;;;;;;;;5068739;28;20024;-73
2023/01/11 05:06:08;;;;;;;47.42;38.50;;;;;;;;;;5068581;28;20043;-74
2023/01/11 05:08:34;;;;;;;47.53;36.45;;;;;;;;;;5095178;28;20455;-74
2023/01/11 05:11:01;;;;;;;37.30;27.48;;;;;;;;;;5094158;28;20016;-74
2023/01/11 05:13:47;;;;;;;41.72;33.30;;;;;;;;;;5094404;28;20434;-74
2023/01/11 05:16:19;;;;;;;17.38;12.95;;;;;;;;;;5092053;28;20039;-75
2023/01/11 05:18:52;;;;;;;17.45;13.57;;;;;;;;;;5097212;28;20036;-75
2023/01/11 05:21:18;;;;;;;57.08;44.85;;;;;;;;;;5079164;28;20040;-75
2023/01/11 05:23:44;;;;;;;67.60;52.55;;;;;;;;;;5087285;28;20415;-74
2023/01/11 05:26:29;;;;;;;66.25;51.03;;;;;;;;;;5092250;28;20020;-73
2023/01/11 05:28:56;;;;;;;70.50;55.65;;;;;;;;;;5094281;28;20027;-76
2023/01/11 05:31:21;;;;;;;43.55;35.92;;;;;;;;;;5095320;28;20117;-75
2023/01/11 05:33:47;;;;;;;43.83;36.33;;;;;;;;;;5093338;28;20090;-74
2023/01/11 05:36:13;;;;;;;71.32;57.40;;;;;;;;;;5094857;28;20109;-75
2023/01/11 05:38:39;;;;;;;52.65;43.92;;;;;;;;;;5075153;28;20031;-75
2023/01/11 05:41:05;;;;;;;86.10;67.43;;;;;;;;;;5082339;28;24073;-74
2023/01/11 05:43:31;;;;;;;38.40;34.33;;;;;;;;;;5093946;28;20127;-74
2023/01/11 05:45:57;;;;;;;38.10;34.05;;;;;;;;;;5076362;28;20118;-74
2023/01/11 05:48:22;;;;;;;36.83;32.95;;;;;;;;;;5095595;28;20020;-75
2023/01/11 05:50:51;;;;;;;25.80;23.00;;;;;;;;;;5094536;28;20038;-74
2023/01/11 05:53:17;;;;;;;12.88;11.55;;;;;;;;;;5095303;28;20035;-75
2023/01/11 05:55:55;;;;;;;19.15;17.25;;;;;;;;;;5094149;28;20031;-75
2023/01/11 05:58:20;;;;;;;17.80;15.75;;;;;;;;;;5097636;28;20028;-76
2023/01/11 06:00:47;;;;;;;10.98;9.88;;;;;;;;;;5092777;28;20028;-76
2023/01/11 06:03:12;;;;;;;17.40;15.35;;;;;;;;;;5094042;28;20040;-75
2023/01/11 06:05:37;;;;;;;12.15;10.88;;;;;;;;;;5097206;28;20438;-75
2023/01/11 06:08:03;;;;;;;7.55;6.85;;;;;;;;;;5097966;28;20030;-76
2023/01/11 06:10:28;;;;;;;8.30;7.40;;;;;;;;;;5093393;28;20016;-76
2023/01/11 06:13:25;;;;;;;17.55;15.25;;;;;;;;;;5076974;28;20475;-74
2023/01/11 06:15:42;;;;;;;13.02;11.73;;;;;;;;;;5095605;28;20039;-74
2023/01/11 06:18:07;;;;;;;11.35;9.63;;;;;;;;;;5093484;28;20023;-74
2023/01/11 06:20:32;;;;;;;12.05;10.85;;;;;;;;;;5098513;28;20027;-74
2023/01/11 06:22:58;;;;;;;4.72;4.15;;;;;;;;;;5096045;28;20035;-74
2023/01/11 06:25:23;;;;;;;6.85;5.47;;;;;;;;;;5095703;28;20039;-74
2023/01/11 06:27:48;;;;;;;7.88;6.78;;;;;;;;;;5092958;28;20434;-73
2023/01/11 06:30:14;;;;;;;8.63;7.22;;;;;;;;;;5092315;28;20020;-74
2023/01/11 06:32:39;;;;;;;7.93;6.95;;;;;;;;;;5093168;28;20082;-75
2023/01/11 06:35:04;;;;;;;16.45;14.73;;;;;;;;;;5094239;28;20043;-75
2023/01/11 06:37:30;;;;;;;35.88;29.70;;;;;;;;;;5093790;28;20444;-74
2023/01/11 06:39:55;;;;;;;47.22;37.42;;;;;;;;;;5094208;28;20034;-74
2023/01/11 06:42:20;;;;;;;83.32;57.45;;;;;;;;;;5095375;28;20030;-75
2023/01/11 06:44:45;;;;;;;117.70;81.35;;;;;;;;;;5094791;28;20038;-73
2023/01/11 06:47:11;;;;;;;61.13;46.05;;;;;;;;;;5094172;28;20478;-74
2023/01/11 06:49:36;;;;;;;60.75;47.25;;;;;;;;;;5092933;28;20042;-75
2023/01/11 06:52:01;;;;;;;111.85;87.85;;;;;;;;;;5092675;28;20019;-74
2023/01/11 06:54:27;;;;;;;63.72;51.33;;;;;;;;;;5094397;28;20441;-73
2023/01/11 06:56:52;;;;;;;79.30;56.33;;;;;;;;;;5094764;28;20061;-75
2023/01/11 06:59:17;;;;;;;126.47;88.22;;;;;;;;;;5092306;28;20062;-74
2023/01/11 07:01:43;;;;;;;214.85;152.18;;;;;;;;;;5096538;28;20829;-74
2023/01/11 07:04:08;;;;;;;139.93;112.90;;;;;;;;;;5093090;28;20012;-75
2023/01/11 07:06:34;;;;;;;112.60;87.43;;;;;;;;;;5092941;28;20028;-73
2023/01/11 07:08:59;;;;;;;152.48;108.28;;;;;;;;;;5095023;28;20019;-73
2023/01/11 07:11:26;;;;;;;52.97;39.13;;;;;;;;;;5097712;28;20082;-73
2023/01/11 07:13:51;;;;;;;20.05;17.17;;;;;;;;;;5095038;28;21496;-74
2023/01/11 07:16:16;;;;;;;47.75;42.70;;;;;;;;;;5094021;28;20418;-74
2023/01/11 07:18:42;;;;;;;47.47;42.25;;;;;;;;;;5095622;28;20034;-75
2023/01/11 07:21:07;;;;;;;62.15;48.05;;;;;;;;;;5095161;28;20032;-75
2023/01/11 07:23:32;;;;;;;88.28;64.15;;;;;;;;;;5096126;28;20834;-73
2023/01/11 07:25:58;;;;;;;136.98;94.47;;;;;;;;;;5098258;28;20400;-73
2023/01/11 07:28:23;;;;;;;262.00;196.43;;;;;;;;;;5095020;28;20040;-73
2023/01/11 07:30:48;;;;;;;155.43;120.88;;;;;;;;;;5099005;28;20035;-73
2023/01/11 07:33:15;;;;;;;121.05;100.40;;;;;;;;;;5098839;28;20114;-75
2023/01/11 07:35:40;;;;;;;170.20;129.82;;;;;;;;;;5098066;28;20083;-74
2023/01/11 07:38:08;;;;;;;145.82;97.28;;;;;;;;;;5097545;28;20027;-74
2023/01/11 07:40:35;;;;;;;52.85;36.58;;;;;;;;;;5093267;28;20039;-75
2023/01/11 07:43:17;;;;;;;41.15;31.65;;;;;;;;;;5094671;28;20387;-74
2023/01/11 07:45:48;;;;;;;23.92;19.50;;;;;;;;;;5096146;28;20350;-74
2023/01/11 07:48:14;;;;;;;53.00;39.75;;;;;;;;;;5097450;28;20023;-75
2023/01/11 07:50:40;;;;;;;30.50;26.98;;;;;;;;;;5098243;28;20100;-75
2023/01/11 07:53:06;;;;;;;106.28;91.03;;;;;;;;;;5099478;28;20055;-75
2023/01/11 07:55:31;;;;;;;31.25;27.25;;;;;;;;;;5097367;28;20016;-74
2023/01/11 07:57:56;;;;;;;48.67;41.55;;;;;;;;;;5098894;28;20036;-75
2023/01/11 08:00:22;;;;;;;44.22;39.08;;;;;;;;;;5094333;28;20051;-74
2023/01/11 08:02:48;;;;;;;18.73;16.20;;;;;;;;;;5097485;28;20020;-76
2023/01/11 08:05:14;;;;;;;59.20;52.90;;;;;;;;;;5096634;28;20024;-75
2023/01/11 08:07:40;;;;;;;70.75;63.22;;;;;;;;;;5098741;28;20127;-76
2023/01/11 08:10:06;;;;;;;43.67;37.58;;;;;;;;;;5096192;28;20020;-74
2023/01/11 08:15:15;;;;;;;69.13;59.67;;;;;;;;;;5096605;28;20100;-75
2023/01/11 08:17:40;;;;;;;29.15;25.67;;;;;;;;;;5096705;28;20435;-74
2023/01/11 08:20:06;;;;;;;67.18;52.20;;;;;;;;;;5097665;28;20027;-74
2023/01/11 08:22:31;;;;;;;135.85;100.68;;;;;;;;;;5097814;28;20034;-73
2023/01/11 08:24:56;;;;;;;143.43;107.57;;;;;;;;;;5098728;28;20088;-74
2023/01/11 08:27:21;;;;;;;105.78;81.28;;;;;;;;;;5098335;28;20028;-74
2023/01/11 08:29:47;;;;;;;95.47;74.18;;;;;;;;;;5098302;28;20473;-74
2023/01/11 08:32:12;;;;;;;54.42;41.53;;;;;;;;;;5095959;28;20049;-74
2023/01/11 08:34:37;;;;;;;96.80;65.85;;;;;;;;;;5096165;28;20073;-73
2023/01/11 08:37:04;;;;;;;57.80;46.03;;;;;;;;;;5097075;28;20015;-74
2023/01/11 08:39:29;;;;;;;31.90;27.27;;;;;;;;;;5097986;28;20038;-73
2023/01/11 08:41:57;;;;;;;48.35;41.38;;;;;;;;;;5095682;28;20020;-73
2023/01/11 08:44:23;;;;;;;53.30;45.75;;;;;;;;;;5095924;28;20028;-74
2023/01/11 08:46:48;;;;;;;46.45;38.13;;;;;;;;;;5096573;28;20038;-73
2023/01/11 08:49:13;;;;;;;52.50;43.20;;;;;;;;;;5099757;28;20096;-73
2023/01/11 08:51:39;;;;;;;22.65;20.02;;;;;;;;;;5093638;28;20052;-73
2023/01/11 08:54:08;;;;;;;42.92;33.90;;;;;;;;;;5096176;28;21395;-74
2023/01/11 08:56:33;;;;;;;64.32;48.05;;;;;;;;;;5094956;28;20019;-75
2023/01/11 08:58:59;;;;;;;40.58;27.60;;;;;;;;;;5097351;28;20103;-74
2023/01/11 09:01:25;;;;;;;63.78;56.83;;;;;;;;;;5096632;28;20142;-74
2023/01/11 09:03:50;;;;;;;53.38;47.45;;;;;;;;;;5093886;28;20024;-74
2023/01/11 09:06:17;;;;;;;35.20;31.25;;;;;;;;;;5095490;28;20374;-73
2023/01/11 09:08:43;;;;;;;22.10;19.88;;;;;;;;;;5094597;28;20030;-73
2023/01/11 09:11:52;;;;;;;16.50;14.80;;;;;;;;;;5097542;28;20032;-75
2023/01/11 09:13:53;;;;;;;22.90;18.10;;;;;;;;;;5095212;28;20059;-73
2023/01/11 09:16:18;;;;;;;39.30;35.33;;;;;;;;;;5095793;28;20431;-74
2023/01/11 09:18:44;;;;;;;28.98;26.30;;;;;;;;;;5098273;28;20020;-75
2023/01/11 09:21:09;;;;;;;18.67;16.75;;;;;;;;;;5094891;28;20527;-74
2023/01/11 09:23:35;;;;;;;13.70;7.70;;;;;;;;;;5095007;28;20103;-73
2023/01/11 09:26:01;;;;;;;9.50;6.43;;;;;;;;;;5094060;28;20023;-74
2023/01/11 09:28:26;;;;;;;49.65;34.33;;;;;;;;;;5095558;28;20034;-73
2023/01/11 09:30:52;;;;;;;47.65;39.25;;;;;;;;;;5098329;28;20023;-73
2023/01/11 09:33:17;;;;;;;40.38;27.45;;;;;;;;;;5098990;28;20080;-73
2023/01/11 09:35:45;;;;;;;78.45;60.33;;;;;;;;;;5097260;28;20027;-73
2023/01/11 09:38:10;;;;;;;25.20;21.20;;;;;;;;;;5093664;28;20103;-74
2023/01/11 09:41:09;;;;;;;27.40;23.13;;;;;;;;;;5095818;28;20119;-73
2023/01/11 09:43:40;;;;;;;31.00;24.60;;;;;;;;;;5068066;28;20020;-72
2023/01/11 09:46:07;;;;;;;17.05;14.07;;;;;;;;;;5095367;28;20027;-72
2023/01/11 09:48:38;;;;;;;21.77;18.08;;;;;;;;;;5094174;28;20043;-74
2023/01/11 09:51:04;;;;;;;17.05;15.45;;;;;;;;;;5094553;28;20098;-71
2023/01/11 09:53:36;;;;;;;7.68;6.95;;;;;;;;;;5093435;28;20099;-72
2023/01/11 09:56:04;;;;;;;33.78;24.90;;;;;;;;;;5093885;28;20031;-73
2023/01/11 09:58:36;;;;;;;9.02;7.25;;;;;;;;;;5095694;28;20064;-72
2023/01/11 10:01:11;;;;;;;21.08;18.92;;;;;;;;;;5093540;28;20062;-72
2023/01/11 10:03:36;;;;;;;25.17;20.05;;;;;;;;;;5096501;28;20035;-72
2023/01/11 10:06:07;;;;;;;19.50;17.58;;;;;;;;;;5095377;28;20108;-73
2023/01/11 10:08:40;;;;;;;5.72;5.28;;;;;;;;;;5094756;28;20035;-73
2023/01/11 10:11:19;;;;;;;6.85;6.28;;;;;;;;;;5075693;28;20381;-71
2023/01/11 10:13:45;;;;;;;6.90;5.93;;;;;;;;;;5094206;28;20375;-72
2023/01/11 10:16:27;;;;;;;60.25;46.10;;;;;;;;;;5093354;28;20423;-73
2023/01/11 10:19:03;;;;;;;47.65;37.17;;;;;;;;;;5094457;28;20350;-73
2023/01/11 10:21:39;;;;;;;15.25;12.48;;;;;;;;;;5097654;28;20030;-71
2023/01/11 10:24:13;;;;;;;39.28;32.75;;;;;;;;;;5095346;28;20016;-74
2023/01/11 10:26:40;;;;;;;13.77;12.45;;;;;;;;;;5094078;28;20028;-71
2023/01/11 10:29:38;;;;;;;20.38;18.40;;;;;;;;;;5093624;28;20031;-71
2023/01/11 10:32:24;;;;;;;11.73;10.63;;;;;;;;;;5095548;28;20630;-73
2023/01/11 10:35:16;;;;;;;4.30;3.40;;;;;;;;;;5093790;28;20454;-72
2023/01/11 10:37:49;;;;;;;12.95;11.65;;;;;;;;;;5093799;28;20031;-72
2023/01/11 10:43:03;;;;;;;21.50;17.75;;;;;;;;;;5094733;28;20551;-72
2023/01/11 10:45:36;;;;;;;16.60;12.48;;;;;;;;;;5094267;28;20024;-72
2023/01/11 10:48:13;;;;;;;9.82;8.30;;;;;;;;;;5095251;28;20031;-72
2023/01/11 10:50:38;;;;;;;16.13;13.45;;;;;;;;;;5094175;28;20450;-70
2023/01/11 10:53:14;;;;;;;19.65;17.13;;;;;;;;;;5096771;28;20077;-72
2023/01/11 10:55:58;;;;;;;155.50;113.82;;;;;;;;;;5095602;28;20027;-72
2023/01/11 10:59:02;;;;;;;163.98;133.80;;;;;;;;;;5093440;28;20051;-72
2023/01/11 11:01:38;;;;;;;26.45;23.67;;;;;;;;;;5069199;28;20027;-72
2023/01/11 11:04:16;;;;;;;18.38;15.73;;;;;;;;;;5097618;28;20559;-72
2023/01/11 11:06:59;;;;;;;32.03;28.75;;;;;;;;;;5098237;28;20024;-72
2023/01/11 11:09:25;;;;;;;18.75;16.75;;;;;;;;;;5096550;28;20027;-72
2023/01/11 11:11:53;;;;;;;37.95;27.35;;;;;;;;;;5099132;28;20085;-72
2023/01/11 11:14:56;;;;;;;130.02;76.43;;;;;;;;;;5097480;28;20019;-72
2023/01/11 11:17:21;;;;;;;58.40;42.47;;;;;;;;;;5062220;28;20036;-72
2023/01/11 11:19:46;;;;;;;49.70;36.35;;;;;;;;;;5097369;28;20039;-72
2023/01/11 11:22:12;;;;;;;36.53;27.25;;;;;;;;;;5101372;28;20123;-71
2023/01/11 11:24:37;;;;;;;17.50;14.27;;;;;;;;;;5098722;28;20048;-72
2023/01/11 11:27:08;;;;;;;51.33;35.00;;;;;;;;;;5096819;28;20023;-71
2023/01/11 11:29:39;;;;;;;21.42;18.17;;;;;;;;;;5099357;28;20089;-73
2023/01/11 11:32:14;;;;;;;70.78;52.50;;;;;;;;;;5096533;28;20023;-74
2023/01/11 11:34:44;;;;;;;50.42;37.97;;;;;;;;;;5098677;28;20028;-71
2023/01/11 11:37:18;;;;;;;75.45;49.60;;;;;;;;;;5099525;28;20094;-72
2023/01/11 11:39:46;;;;;;;84.95;56.30;;;;;;;;;;5097867;28;20031;-71
2023/01/11 11:42:16;;;;;;;34.22;25.00;;;;;;;;;;5098375;28;20078;-72
2023/01/11 11:44:41;;;;;;;;;;;;;;;;;;5099740;28;20051;-72
2023/01/11 11:47:14;;;;;;;35.97;28.52;;;;;;;;;;5098521;28;20803;-71
2023/01/11 11:49:40;;;;;;;38.35;31.38;;;;;;;;;;5100924;28;20028;-71
2023/01/11 11:52:09;;;;;;;39.88;31.70;;;;;;;;;;5099554;28;20024;-74
2023/01/11 11:54:47;;;;;;;32.30;20.65;;;;;;;;;;5096619;28;20027;-72
2023/01/11 11:57:21;;;;;;;23.08;16.17;;;;;;;;;;5098198;28;20015;-73
2023/01/11 11:59:48;;;;;;;31.23;26.25;;;;;;;;;;5098301;28;20059;-71
2023/01/11 12:02:23;;;;;;;25.45;22.60;;;;;;;;;;5099293;28;20027;-71
2023/01/11 12:04:49;;;;;;;20.90;16.30;;;;;;;;;;5097764;28;20040;-72
2023/01/11 12:07:25;;;;;;;20.73;16.40;;;;;;;;;;5078343;28;20048;-72
2023/01/11 12:10:02;;;;;;;20.52;17.10;;;;;;;;;;5097795;28;20076;-71
2023/01/11 12:12:27;;;;;;;28.98;24.05;;;;;;;;;;5095154;28;20107;-72
2023/01/11 12:15:22;;;;;;;22.02;16.80;;;;;;;;;;5099931;28;20441;-73
2023/01/11 12:17:47;;;;;;;18.33;16.42;;;;;;;;;;5030966;28;20055;-73
2023/01/11 12:20:22;;;;;;;29.60;25.10;;;;;;;;;;5034336;28;20041;-73
2023/01/11 12:22:48;;;;;;;59.03;43.60;;;;;;;;;;5036111;28;20067;-74
2023/01/11 12:25:13;;;;;;;48.33;41.95;;;;;;;;;;5032157;28;20032;-73
2023/01/11 12:27:49;;;;;;;57.60;43.95;;;;;;;;;;5032938;28;20116;-74
2023/01/11 12:30:18;;;;;;;91.53;71.70;;;;;;;;;;5033850;28;20045;-74
2023/01/11 12:32:43;;;;;;;44.38;35.55;;;;;;;;;;5032431;28;21005;-76
2023/01/11 12:35:27;;;;;;;36.83;28.42;;;;;;;;;;5031539;28;20040;-73
2023/01/11 12:38:08;;;;;;;13.50;11.02;;;;;;;;;;5034305;28;20076;-72
2023/01/11 12:40:36;;;;;;;109.97;61.28;;;;;;;;;;5034973;28;20037;-71
2023/01/11 12:43:18;;;;;;;105.72;61.33;;;;;;;;;;5032375;28;20472;-72
2023/01/11 12:45:55;;;;;;;62.47;42.08;;;;;;;;;;5032961;28;20060;-71
2023/01/11 12:48:26;;;;;;;24.52;17.17;;;;;;;;;;5031914;28;20833;-72
2023/01/11 12:51:10;;;;;;;71.40;53.55;;;;;;;;;;5015054;28;20342;-72
2023/01/11 12:53:54;;;;;;;47.95;36.15;;;;;;;;;;5044900;28;20048;-72
2023/01/11 12:56:20;;;;;;;31.88;25.80;;;;;;;;;;5096241;28;20106;-72
2023/01/11 12:59:00;;;;;;;13.20;11.80;;;;;;;;;;5093959;28;20587;-73
2023/01/11 13:01:44;;;;;;;88.18;63.50;;;;;;;;;;5096482;28;20508;-72
2023/01/11 13:04:19;;;;;;;104.07;47.72;;;;;;;;;;5094033;28;20482;-72
2023/01/11 13:07:04;;;;;;;88.47;53.05;;;;;;;;;;5094364;28;20023;-73
2023/01/11 13:09:30;;;;;;;96.22;44.30;;;;;;;;;;5095155;28;20050;-72
2023/01/11 13:12:15;;;;;;;18.50;16.55;;;;;;;;;;5096863;28;20024;-71
2023/01/11 13:15:04;;;;;;;7.57;6.88;;;;;;;;;;5094361;28;20391;-71
2023/01/11 13:17:35;;;;;;;14.50;12.02;;;;;;;;;;5089226;28;20127;-73
2023/01/11 13:20:00;;;;;;;83.50;52.47;;;;;;;;;;5096978;28;20123;-73
2023/01/11 13:22:28;;;;;;;38.03;26.15;;;;;;;;;;5092754;28;20503;-79
2023/01/11 13:24:54;;;;;;;76.80;36.50;;;;;;;;;;5095929;28;20011;-72
2023/01/11 13:27:21;;;;;;;46.45;37.40;;;;;;;;;;5096110;28;20437;-72
2023/01/11 13:29:48;;;;;;;38.28;34.28;;;;;;;;;;5096892;28;20578;-74
2023/01/11 13:32:15;;;;;;;76.38;68.85;;;;;;;;;;5094921;28;20023;-73
2023/01/11 13:34:47;;;;;;;40.42;36.25;;;;;;;;;;5094047;28;20034;-78
2023/01/11 13:37:26;;;;;;;42.72;35.65;;;;;;;;;;5093307;28;20027;-73
2023/01/11 13:39:55;;;;;;;53.40;40.40;;;;;;;;;;5095408;28;20031;-73
2023/01/11 13:42:23;;;;;;;44.15;38.67;;;;;;;;;;5095830;28;20634;-72
2023/01/11 13:44:53;;;;;;;31.02;27.63;;;;;;;;;;5095242;28;20430;-75
2023/01/11 13:47:23;;;;;;;23.42;21.02;;;;;;;;;;5097278;28;20059;-72
2023/01/11 13:50:00;;;;;;;19.13;15.45;;;;;;;;;;5094981;28;20027;-72
2023/01/11 13:52:34;;;;;;;51.85;42.17;;;;;;;;;;5094262;28;20031;-72
2023/01/11 13:55:12;;;;;;;43.45;32.58;;;;;;;;;;5093511;28;20064;-73
2023/01/11 13:57:43;;;;;;;44.78;37.45;;;;;;;;;;5096923;28;20059;-73
2023/01/11 14:00:19;;;;;;;42.63;38.30;;;;;;;;;;5090745;28;20070;-72
2023/01/11 14:03:03;;;;;;;44.90;31.17;;;;;;;;;;5094992;28;20031;-74
2023/01/11 14:05:34;;;;;;;17.95;16.27;;;;;;;;;;5094164;28;20024;-72
2023/01/11 14:07:59;;;;;;;23.42;21.00;;;;;;;;;;5095636;28;20027;-72
2023/01/11 14:10:25;;;;;;;22.45;20.20;;;;;;;;;;5095279;28;20037;-72
2023/01/11 14:13:08;;;;;;;26.30;23.10;;;;;;;;;;5095772;28;20041;-72
2023/01/11 14:15:43;;;;;;;36.17;29.63;;;;;;;;;;5093547;28;20043;-72
2023/01/11 14:18:27;;;;;;;79.40;56.65;;;;;;;;;;5094657;28;20042;-72
2023/01/11 14:21:11;;;;;;;155.55;108.35;;;;;;;;;;5093922;28;20107;-72
2023/01/11 14:23:47;;;;;;;38.05;28.25;;;;;;;;;;5093985;28;20040;-72
2023/01/11 14:26:32;;;;;;;35.92;23.00;;;;;;;;;;5095380;28;20103;-72
2023/01/11 14:29:00;;;;;;;115.93;63.60;;;;;;;;;;5092903;28;20119;-72
2023/01/11 14:31:28;;;;;;;112.25;66.03;;;;;;;;;;5097980;28;20110;-72
2023/01/11 14:34:15;;;;;;;156.23;89.43;;;;;;;;;;5096493;28;20028;-71
2023/01/11 14:36:41;;;;;;;161.68;88.68;;;;;;;;;;5096059;28;20951;-73
2023/01/11 14:39:22;;;;;;;67.75;46.85;;;;;;;;;;5094141;28;20116;-74
2023/01/11 14:42:06;;;;;;;43.83;34.45;;;;;;;;;;5094019;28;20024;-73
2023/01/11 14:44:51;;;;;;;38.22;33.38;;;;;;;;;;5087946;28;20020;-74
2023/01/11 14:47:35;;;;;;;39.85;34.17;;;;;;;;;;5075518;28;20031;-74
2023/01/11 14:50:03;;;;;;;29.38;23.73;;;;;;;;;;5087617;28;20059;-73
2023/01/11 14:52:31;;;;;;;30.85;26.42;;;;;;;;;;5094268;28;20443;-75
2023/01/11 14:54:59;;;;;;;34.67;28.50;;;;;;;;;;5094047;28;20032;-74
2023/01/11 14:57:58;;;;;;;42.40;35.75;;;;;;;;;;5090964;28;20080;-75
2023/01/11 15:00:23;;;;;;;36.92;30.48;;;;;;;;;;5090273;28;20048;-74
2023/01/11 15:02:52;;;;;;;66.93;54.67;;;;;;;;;;5072887;28;20462;-73